Notice: Undefined index: language in D:\xampp\htdocs\vam\index.php on line 25
Open Air Virtual

 METAR AND TAF INFORMATION
METAR FOR KCPU
ADDS - METARS form results

(1146 UTC 20 August 2019)
Data provider http://aviationweather.gov/metar/data/
 
METAR text: KCPU 201135Z AUTO 00000KT 10SM CLR 14/12 A2997 RMK AO2 T01420115
Conditions at: KCPU (SAN ANDREAS , CA, US) observed 1135 UTC 20 August 2019
Temperature: 14.2°C (58°F)
Dewpoint: 11.5°C (53°F) [RH = 84%]
Pressure (altimeter): 29.97 inches Hg (1015.0 mb)
Winds: calm
Visibility: 10 or more miles (16+ km)
Ceiling: at least 12,000 feet AGL
Clouds: sky clear below 12,000 feet AGL
Weather: automated observation with no human augmentation;
there may or may not be significant weather present at this time

METAR text: KCPU 201115Z AUTO 00000KT 10SM CLR 15/12 A2997 RMK AO2 T01470116
Conditions at: KCPU (SAN ANDREAS , CA, US) observed 1115 UTC 20 August 2019
Temperature: 14.7°C (58°F)
Dewpoint: 11.6°C (53°F) [RH = 82%]
Pressure (altimeter): 29.97 inches Hg (1015.0 mb)
Winds: calm
Visibility: 10 or more miles (16+ km)
Ceiling: at least 12,000 feet AGL
Clouds: sky clear below 12,000 feet AGL
Weather: automated observation with no human augmentation;
there may or may not be significant weather present at this time

METAR text: KCPU 201055Z AUTO 00000KT 10SM CLR 15/12 A2997 RMK AO2 T01500117
Conditions at: KCPU (SAN ANDREAS , CA, US) observed 1055 UTC 20 August 2019
Temperature: 15.0°C (59°F)
Dewpoint: 11.7°C (53°F) [RH = 81%]
Pressure (altimeter): 29.97 inches Hg (1015.0 mb)
Winds: calm
Visibility: 10 or more miles (16+ km)
Ceiling: at least 12,000 feet AGL
Clouds: sky clear below 12,000 feet AGL
Weather: automated observation with no human augmentation;
there may or may not be significant weather present at this time

 AIRPORT MAP

 RUNWAY INFORMATION
Runway 13 Runway length 3603 ft Runway width 60 ft
Runway elevation 1302 ft Runway displaced threshold 0 ft Runway heading 146
Runway 31 Runway length 3603 ft Runway width 60 ft
Runway elevation 1325 ft Runway displaced threshold 0 ft Runway heading 326

 AIRPORT FREQUENCIES
Type AWOS Name AWOS 3 Frequency 118.525 MHZ
Type CNTR Name OAKLAND CN Frequency 126.85 MHZ
Type FSS Name RANCHO RDO Frequency 122.3 MHZ
Type UNIC Name CTAF/UNICO Frequency 122.8 MHZ

 AIRPORT NEAR NAVIGATION AIDS



Powered by Virtual Airlines Manager [v2.6.2]